createdAt,value
2023-02-07T00:02:51.203Z,99763.56
2023-02-07T00:06:54.415Z,99767.03
2023-02-07T00:10:57.268Z,99767.06
2023-02-07T00:15:00.794Z,99771.34
2023-02-07T00:19:05.492Z,99763.69
2023-02-07T00:23:08.889Z,99764.56
2023-02-07T00:27:11.951Z,99778.13
2023-02-07T00:31:17.156Z,99783.22
2023-02-07T00:35:21.699Z,99777.31
2023-02-07T00:39:25.104Z,99784.09
2023-02-07T00:43:30.507Z,99800.25
2023-02-07T00:47:33.665Z,99801.13
2023-02-07T00:51:38.598Z,99818.09
2023-02-07T00:55:42.150Z,99823.25
2023-02-07T00:59:45.380Z,99825.81
2023-02-07T01:03:49.818Z,99831.81
2023-02-07T01:07:54.472Z,99834.41
2023-02-07T01:11:57.894Z,99827.66
2023-02-07T01:16:00.926Z,99828.47
2023-02-07T01:20:04.442Z,99834.44
2023-02-07T01:24:09.909Z,99828.47
2023-02-07T01:28:14.456Z,99816.56
2023-02-07T01:32:18.741Z,99823.31
2023-02-07T01:36:21.928Z,99817.31
2023-02-07T01:40:27.081Z,99816.41
2023-02-07T01:45:07.412Z,99814.66
2023-02-07T01:49:14.016Z,99809.50
2023-02-07T01:53:20.615Z,99801.84
2023-02-07T01:57:25.518Z,99790.84
2023-02-07T02:01:28.847Z,99787.41
2023-02-07T02:05:33.474Z,99786.44
2023-02-07T02:09:38.355Z,99787.19
2023-02-07T02:13:51.870Z,99792.22
2023-02-07T02:18:09.657Z,99784.56
2023-02-07T02:22:29.814Z,99776.88
2023-02-07T02:26:59.329Z,99775.16
2023-02-07T02:31:30.570Z,99761.66
2023-02-07T02:35:42.556Z,99751.47
2023-02-07T02:39:52.868Z,99754.78
2023-02-07T02:44:01.190Z,99753.09
2023-02-07T02:48:06.161Z,99736.19
2023-02-07T02:52:10.691Z,99741.34
2023-02-07T02:56:47.015Z,99728.63
2023-02-07T03:01:03.081Z,99743.13
2023-02-07T03:05:20.301Z,99750.84
2023-02-07T03:09:37.271Z,99767.88
2023-02-07T03:13:52.076Z,99742.38
2023-02-07T03:18:01.280Z,99742.38
2023-02-07T03:22:11.414Z,99739.88
2023-02-07T03:26:16.422Z,99755.19
2023-02-07T03:30:22.968Z,99763.72
2023-02-07T03:34:33.639Z,99745.97
2023-02-07T03:38:37.072Z,99735.03
2023-02-07T03:42:47.090Z,99739.31
2023-02-07T03:46:51.935Z,99722.44
2023-02-07T03:50:55.512Z,99723.34
2023-02-07T03:54:58.532Z,99737.84
2023-02-07T03:59:03.477Z,99737.94
2023-02-07T04:03:06.911Z,99732.94
2023-02-07T04:07:11.254Z,99742.31
2023-02-07T04:11:14.780Z,99751.72
2023-02-07T04:15:19.481Z,99750.91
2023-02-07T04:19:23.337Z,99746.75
2023-02-07T04:23:26.953Z,99751.91
2023-02-07T04:27:30.565Z,99750.28
2023-02-07T04:31:34.841Z,99756.25
2023-02-07T04:35:38.557Z,99736.81
2023-02-07T04:39:42.042Z,99728.38
2023-02-07T04:43:45.218Z,99736.09
2023-02-07T04:47:50.403Z,99741.22
2023-02-07T04:51:53.823Z,99757.41
2023-02-07T04:55:56.900Z,99748.94
2023-02-07T05:00:00.871Z,99760.81
2023-02-07T05:04:06.194Z,99774.38
2023-02-07T05:08:10.435Z,99758.34
2023-02-07T05:12:13.916Z,99771.06
2023-02-07T05:16:17.010Z,99767.69
2023-02-07T05:25:07.124Z,99760.06
2023-02-07T05:29:10.406Z,99763.44
2023-02-07T05:33:13.446Z,99769.41
2023-02-07T05:37:18.225Z,99776.19
2023-02-07T05:41:21.619Z,99771.13
2023-02-07T05:45:25.046Z,99780.44
2023-02-07T05:49:27.971Z,99786.41
2023-02-07T05:53:32.892Z,99798.31
2023-02-07T05:57:36.278Z,99801.69
2023-02-07T06:01:40.524Z,99805.09
2023-02-07T06:05:43.609Z,99800.06
2023-02-07T06:09:48.327Z,99808.56
2023-02-07T06:13:51.744Z,99821.25
2023-02-07T06:17:54.900Z,99821.28
2023-02-07T06:21:58.439Z,99810.31
2023-02-07T06:26:02.709Z,99820.47
2023-02-07T06:30:06.616Z,99820.47
2023-02-07T06:34:09.963Z,99823.84
2023-02-07T06:38:13.777Z,99818.75
2023-02-07T06:42:18.194Z,99821.28
2023-02-07T06:46:21.543Z,99820.38
2023-02-07T06:50:24.889Z,99822.84
2023-02-07T06:54:27.953Z,99812.56
2023-02-07T06:58:32.703Z,99810.66
2023-02-07T07:02:36.026Z,99802.88
2023-02-07T07:06:39.280Z,99802.63
2023-02-07T07:10:42.336Z,99813.31
2023-02-07T07:14:46.942Z,99818.03
2023-02-07T07:23:00.816Z,99826.47
2023-02-07T07:27:04.533Z,99826.03
2023-02-07T07:31:09.865Z,99833.25
2023-02-07T07:35:12.908Z,99831.97
2023-02-07T07:39:17.472Z,99828.13
2023-02-07T07:43:20.946Z,99815.81
2023-02-07T07:47:28.256Z,99810.25
2023-02-07T07:51:31.655Z,99825.03
2023-02-07T07:55:34.650Z,99817.81
2023-02-07T07:59:37.904Z,99820.84
2023-02-07T08:03:42.233Z,99828.16
2023-02-07T08:07:45.801Z,99822.63
2023-02-07T08:11:48.979Z,99813.66
2023-02-07T08:15:52.718Z,99808.81
2023-02-07T08:19:57.106Z,99801.38
2023-02-07T08:24:00.315Z,99798.25
2023-02-07T08:28:04.693Z,99792.53
2023-02-07T08:32:08.007Z,99799.63
2023-02-07T08:36:12.980Z,99799.88
2023-02-07T08:40:15.897Z,99798.31
2023-02-07T08:44:19.265Z,99799.31
2023-02-07T08:48:22.589Z,99804.63
2023-02-07T08:52:28.971Z,99801.44
2023-02-07T08:56:33.196Z,99810.22
2023-02-07T09:00:36.756Z,99802.72
2023-02-07T09:04:42.859Z,99803.78
2023-02-07T09:08:47.523Z,99806.59
2023-02-07T09:12:50.608Z,99810.28
2023-02-07T09:16:54.029Z,99805.41
2023-02-07T09:20:57.459Z,99809.94
2023-02-07T09:25:01.730Z,99801.59
2023-02-07T09:29:04.966Z,99801.13
2023-02-07T09:33:08.275Z,99792.84
2023-02-07T09:37:11.128Z,99800.03
2023-02-07T09:41:23.711Z,99797.72
2023-02-07T09:45:28.268Z,99796.25
2023-02-07T09:49:37.368Z,99786.38
2023-02-07T09:53:44.866Z,99779.03
2023-02-07T09:57:54.589Z,99776.56
2023-02-07T10:02:03.373Z,99780.97
2023-02-07T10:06:18.737Z,99781.97
2023-02-07T10:10:33.174Z,99770.88
2023-02-07T10:15:00.122Z,99766.91
2023-02-07T10:19:12.759Z,99788.63
2023-02-07T10:23:25.529Z,99783.50
2023-02-07T10:27:33.435Z,99784.16
2023-02-07T10:31:40.044Z,99790.84
2023-02-07T10:35:46.392Z,99787.19
2023-02-07T10:39:59.288Z,99786.75
2023-02-07T10:44:02.362Z,99793.31
2023-02-07T10:48:14.892Z,99791.03
2023-02-07T10:52:28.739Z,99776.00
2023-02-07T10:56:37.892Z,99767.78
2023-02-07T11:00:41.208Z,99772.56
2023-02-07T11:04:46.853Z,99761.78
2023-02-07T11:08:50.099Z,99747.69
2023-02-07T11:12:57.133Z,99744.88
2023-02-07T11:17:02.737Z,99720.84
2023-02-07T11:21:21.795Z,99730.63
2023-02-07T11:25:31.406Z,99728.81
2023-02-07T11:29:51.110Z,99732.06
2023-02-07T11:33:54.492Z,99704.22
2023-02-07T11:38:04.903Z,99710.25
2023-02-07T11:42:14.259Z,99704.41
2023-02-07T11:46:17.674Z,99700.50
2023-02-07T11:50:25.808Z,99689.81
2023-02-07T11:54:32.479Z,99695.31
2023-02-07T11:58:37.843Z,99695.16
2023-02-07T12:02:41.607Z,99699.75
2023-02-07T12:06:49.325Z,99689.72
2023-02-07T12:10:58.583Z,99688.69
2023-02-07T12:15:05.664Z,99681.94
2023-02-07T12:19:14.818Z,99675.84
2023-02-07T12:23:42.628Z,99676.34
2023-02-07T12:27:51.475Z,99667.38
2023-02-07T12:32:02.554Z,99663.78
2023-02-07T12:36:13.896Z,99659.44
2023-02-07T12:40:24.232Z,99652.44
2023-02-07T12:44:35.902Z,99648.06
2023-02-07T12:49:03.890Z,99641.22
2023-02-07T12:53:32.482Z,99639.81
2023-02-07T12:57:44.575Z,99640.25
2023-02-07T13:01:54.319Z,99634.25
2023-02-07T13:06:06.077Z,99639.69
2023-02-07T13:10:24.606Z,99634.03
2023-02-07T13:14:38.059Z,99638.28
2023-02-07T13:18:48.440Z,99640.06
2023-02-07T13:22:58.102Z,99642.66
2023-02-07T13:27:08.520Z,99645.31
2023-02-07T13:31:17.613Z,99654.00
2023-02-07T13:35:24.752Z,99652.31
2023-02-07T13:39:43.937Z,99657.66
2023-02-07T13:44:09.424Z,99650.00
2023-02-07T13:48:21.072Z,99654.31
2023-02-07T13:52:35.320Z,99656.19
2023-02-07T13:56:56.672Z,99662.59
2023-02-07T14:01:11.067Z,99651.91
2023-02-07T14:05:23.116Z,99652.34
2023-02-07T14:09:34.968Z,99648.59
2023-02-07T14:13:39.840Z,99655.81
2023-02-07T14:18:00.725Z,99650.66
2023-02-07T14:22:16.353Z,99645.31
2023-02-07T14:26:58.993Z,99648.75
2023-02-07T14:31:12.580Z,99650.25
2023-02-07T14:35:33.879Z,99652.84
2023-02-07T14:40:32.008Z,99648.75
2023-02-07T14:44:39.186Z,99648.22
2023-02-07T14:48:50.344Z,99646.00
2023-02-07T14:52:53.691Z,99650.63
2023-02-07T14:57:08.823Z,99649.28
2023-02-07T15:01:16.484Z,99653.13
2023-02-07T15:05:23.168Z,99647.41
2023-02-07T15:09:28.696Z,99645.31
2023-02-07T15:13:33.950Z,99638.88
2023-02-07T15:17:44.472Z,99637.69
2023-02-07T15:21:49.705Z,99642.78
2023-02-07T15:25:53.594Z,99642.72
2023-02-07T15:29:59.073Z,99643.47
2023-02-07T15:34:13.452Z,99655.53
2023-02-07T15:38:19.072Z,99651.22
2023-02-07T15:42:23.068Z,99659.75
2023-02-07T15:46:27.429Z,99654.63
2023-02-07T15:50:32.337Z,99657.13
2023-02-07T15:54:41.204Z,99670.94
2023-02-07T15:58:44.123Z,99666.81
2023-02-07T16:02:57.647Z,99677.50
2023-02-07T16:07:08.192Z,99676.25
2023-02-07T16:11:24.713Z,99665.63
2023-02-07T16:15:32.743Z,99660.03
2023-02-07T16:19:36.056Z,99659.53
2023-02-07T16:23:41.418Z,99661.38
2023-02-07T16:27:46.422Z,99673.44
2023-02-07T16:31:50.367Z,99686.28
2023-02-07T16:35:53.315Z,99687.00
2023-02-07T16:39:58.648Z,99708.16
2023-02-07T16:44:04.221Z,99700.22
2023-02-07T16:48:11.827Z,99709.34
2023-02-07T16:52:15.543Z,99709.06
2023-02-07T16:56:27.676Z,99723.25
2023-02-07T17:00:31.009Z,99721.16
2023-02-07T17:04:33.988Z,99728.38
2023-02-07T17:08:38.018Z,99733.75
2023-02-07T17:12:43.292Z,99738.22
2023-02-07T17:16:47.162Z,99741.81
2023-02-07T17:20:50.083Z,99739.47
2023-02-07T17:24:54.299Z,99746.47
2023-02-07T17:28:58.870Z,99747.56
2023-02-07T17:33:02.404Z,99750.41
2023-02-07T17:37:06.021Z,99743.84
2023-02-07T17:41:11.367Z,99749.16
2023-02-07T17:45:16.820Z,99747.66
2023-02-07T17:49:19.782Z,99750.38
2023-02-07T17:53:23.524Z,99742.88
2023-02-07T17:57:27.342Z,99751.50
2023-02-07T18:01:32.451Z,99745.69
2023-02-07T18:05:37.061Z,99750.09
2023-02-07T18:09:40.312Z,99746.91
2023-02-07T18:13:45.489Z,99753.88
2023-02-07T18:17:51.420Z,99760.06
2023-02-07T18:21:54.758Z,99758.53
2023-02-07T18:25:57.857Z,99758.72
2023-02-07T18:30:00.868Z,99764.84
2023-02-07T18:34:05.331Z,99758.16
2023-02-07T18:38:08.993Z,99771.06
2023-02-07T18:42:13.849Z,99766.13
2023-02-07T18:46:19.927Z,99771.31
2023-02-07T18:50:25.379Z,99784.22
2023-02-07T18:54:28.838Z,99780.09
2023-02-07T18:58:33.087Z,99779.34
2023-02-07T19:02:36.253Z,99777.75
2023-02-07T19:06:40.608Z,99778.69
2023-02-07T19:10:44.230Z,99776.25
2023-02-07T19:14:47.429Z,99774.59
2023-02-07T19:18:52.945Z,99767.84
2023-02-07T19:22:57.413Z,99769.53
2023-02-07T19:27:01.227Z,99778.03
2023-02-07T19:31:06.391Z,99786.53
2023-02-07T19:35:10.024Z,99790.00
2023-02-07T19:39:15.567Z,99788.41
2023-02-07T19:43:19.060Z,99790.28
2023-02-07T19:47:24.826Z,99797.22
2023-02-07T19:51:34.364Z,99793.16
2023-02-07T19:55:42.605Z,99794.06
2023-02-07T19:59:49.019Z,99791.69
2023-02-07T20:03:59.547Z,99791.81
2023-02-07T20:08:02.894Z,99794.47
2023-02-07T20:12:09.165Z,99795.41
2023-02-07T20:16:15.280Z,99794.63
2023-02-07T20:20:18.875Z,99789.44
2023-02-07T20:24:22.592Z,99795.31
2023-02-07T20:28:29.977Z,99789.25
2023-02-07T20:32:33.707Z,99807.06
2023-02-07T20:36:41.984Z,99795.22
2023-02-07T20:40:45.787Z,99801.19
2023-02-07T20:44:51.220Z,99810.56
2023-02-07T20:48:59.213Z,99795.41
2023-02-07T20:53:05.402Z,99813.19
2023-02-07T20:57:09.527Z,99808.06
2023-02-07T21:01:20.162Z,99784.47
2023-02-07T21:05:23.645Z,99804.69
2023-02-07T21:09:27.234Z,99810.72
2023-02-07T21:13:31.305Z,99810.78
2023-02-07T21:17:36.903Z,99809.19
2023-02-07T21:21:41.391Z,99797.38
2023-02-07T21:25:45.860Z,99801.75
2023-02-07T21:29:49.653Z,99799.28
2023-02-07T21:33:54.721Z,99803.56
2023-02-07T21:37:58.190Z,99801.94
2023-02-07T21:42:02.301Z,99806.13
2023-02-07T21:46:07.789Z,99804.47
2023-02-07T21:50:12.914Z,99800.25
2023-02-07T21:54:16.680Z,99801.97
2023-02-07T21:58:20.075Z,99793.50
2023-02-07T22:02:23.374Z,99798.59
2023-02-07T22:06:28.892Z,99801.03
2023-02-07T22:10:32.053Z,99808.63
2023-02-07T22:14:35.596Z,99805.13
2023-02-07T22:18:39.396Z,99807.59
2023-02-07T22:22:43.846Z,99814.34
2023-02-07T22:26:48.304Z,99811.75
2023-02-07T22:30:51.705Z,99814.25
2023-02-07T22:34:54.910Z,99820.97
2023-02-07T22:38:59.902Z,99811.66
2023-02-07T22:43:03.585Z,99824.34
2023-02-07T22:47:07.063Z,99829.34
2023-02-07T22:51:15.008Z,99828.50
2023-02-07T22:55:19.862Z,99824.31
2023-02-07T22:59:23.048Z,99817.63
2023-02-07T23:03:26.473Z,99837.06
2023-02-07T23:07:29.665Z,99835.31
2023-02-07T23:11:34.802Z,99834.47
2023-02-07T23:15:38.362Z,99835.28
2023-02-07T23:19:41.698Z,99838.69
2023-02-07T23:23:45.241Z,99841.25
2023-02-07T23:27:49.818Z,99851.50
2023-02-07T23:31:53.364Z,99839.72
2023-02-07T23:35:56.847Z,99845.78
2023-02-07T23:39:59.854Z,99841.66
2023-02-07T23:44:04.728Z,99844.31
2023-02-07T23:48:08.289Z,99848.66
2023-02-07T23:52:11.865Z,99838.56
2023-02-07T23:56:18.317Z,99836.09
